sensor_id;sensor_type;location;lat;lon;timestamp;pressure;altitude;pressure_sealevel;temperature;humidity
71239;BME280;61342;51.442;7.370;2022-10-16T00:00:25;99577.47;;;16.02;83.03
71239;BME280;61342;51.442;7.370;2022-10-16T00:01:30;99579.59;;;16.02;83.19
71239;BME280;61342;51.442;7.370;2022-10-16T00:02:30;99578.22;;;16.03;83.02
71239;BME280;61342;51.442;7.370;2022-10-16T00:03:30;99582.88;;;16.06;83.12
71239;BME280;61342;51.442;7.370;2022-10-16T00:04:31;99576.66;;;16.09;83.54
71239;BME280;61342;51.442;7.370;2022-10-16T00:05:31;99580.88;;;16.15;83.33
71239;BME280;61342;51.442;7.370;2022-10-16T00:06:32;99582.81;;;16.20;83.46
71239;BME280;61342;51.442;7.370;2022-10-16T00:07:32;99587.06;;;16.27;83.23
71239;BME280;61342;51.442;7.370;2022-10-16T00:08:33;99573.72;;;16.31;83.02
71239;BME280;61342;51.442;7.370;2022-10-16T00:09:33;99581.63;;;16.38;82.70
71239;BME280;61342;51.442;7.370;2022-10-16T00:10:34;99583.34;;;16.41;82.77
71239;BME280;61342;51.442;7.370;2022-10-16T00:11:37;99575.78;;;16.46;82.27
71239;BME280;61342;51.442;7.370;2022-10-16T00:12:38;99580.81;;;16.45;81.88
71239;BME280;61342;51.442;7.370;2022-10-16T00:13:40;99578.88;;;16.48;82.05
71239;BME280;61342;51.442;7.370;2022-10-16T00:14:41;99578.88;;;16.48;81.55
71239;BME280;61342;51.442;7.370;2022-10-16T00:15:42;99578.50;;;16.44;81.79
71239;BME280;61342;51.442;7.370;2022-10-16T00:16:44;99581.56;;;16.46;81.51
71239;BME280;61342;51.442;7.370;2022-10-16T00:17:44;99590.88;;;16.44;81.58
71239;BME280;61342;51.442;7.370;2022-10-16T00:18:45;99570.03;;;16.38;81.45
71239;BME280;61342;51.442;7.370;2022-10-16T00:19:45;99580.84;;;16.38;81.61
71239;BME280;61342;51.442;7.370;2022-10-16T00:20:45;99583.16;;;16.39;81.09
71239;BME280;61342;51.442;7.370;2022-10-16T00:21:46;99570.41;;;16.35;81.13
71239;BME280;61342;51.442;7.370;2022-10-16T00:22:46;99581.06;;;16.32;81.31
71239;BME280;61342;51.442;7.370;2022-10-16T00:23:50;99577.19;;;16.30;81.55
71239;BME280;61342;51.442;7.370;2022-10-16T00:24:51;99586.50;;;16.28;81.58
71239;BME280;61342;51.442;7.370;2022-10-16T00:25:55;99582.44;;;16.24;81.23
71239;BME280;61342;51.442;7.370;2022-10-16T00:26:56;99578.56;;;16.21;81.50
71239;BME280;61342;51.442;7.370;2022-10-16T00:27:57;99575.28;;;16.17;81.76
71239;BME280;61342;51.442;7.370;2022-10-16T00:28:57;99578.19;;;16.17;81.27
71239;BME280;61342;51.442;7.370;2022-10-16T00:29:58;99582.44;;;16.16;81.83
71239;BME280;61342;51.442;7.370;2022-10-16T00:30:58;99588.25;;;16.16;81.42
71239;BME280;61342;51.442;7.370;2022-10-16T00:31:58;99583.63;;;16.14;81.80
71239;BME280;61342;51.442;7.370;2022-10-16T00:32:59;99590.56;;;16.11;81.45
71239;BME280;61342;51.442;7.370;2022-10-16T00:33:59;99584.59;;;16.09;81.83
71239;BME280;61342;51.442;7.370;2022-10-16T00:35:00;99589.63;;;16.08;81.59
71239;BME280;61342;51.442;7.370;2022-10-16T00:36:02;99588.09;;;16.07;81.80
71239;BME280;61342;51.442;7.370;2022-10-16T00:37:03;99594.25;;;16.04;81.84
71239;BME280;61342;51.442;7.370;2022-10-16T00:38:04;99591.38;;;16.04;81.82
71239;BME280;61342;51.442;7.370;2022-10-16T00:39:04;99597.16;;;16.04;81.68
71239;BME280;61342;51.442;7.370;2022-10-16T00:40:05;99596.41;;;16.03;81.78
71239;BME280;61342;51.442;7.370;2022-10-16T00:41:07;99597.75;;;16.02;82.35
71239;BME280;61342;51.442;7.370;2022-10-16T00:42:14;99594.47;;;15.98;82.12
71239;BME280;61342;51.442;7.370;2022-10-16T00:43:40;99604.34;;;15.95;82.19
71239;BME280;61342;51.442;7.370;2022-10-16T00:45:41;99605.88;;;15.96;82.12
71239;BME280;61342;51.442;7.370;2022-10-16T00:46:42;99602.97;;;15.96;82.62
71239;BME280;61342;51.442;7.370;2022-10-16T00:47:45;99601.03;;;15.99;82.64
71239;BME280;61342;51.442;7.370;2022-10-16T00:49:00;99598.50;;;16.03;82.56
71239;BME280;61342;51.442;7.370;2022-10-16T00:50:10;99600.06;;;16.11;82.76
71239;BME280;61342;51.442;7.370;2022-10-16T00:51:13;99592.88;;;16.19;82.25
71239;BME280;61342;51.442;7.370;2022-10-16T00:52:14;99602.53;;;16.29;81.85
71239;BME280;61342;51.442;7.370;2022-10-16T00:53:16;99600.19;;;16.35;81.87
71239;BME280;61342;51.442;7.370;2022-10-16T00:54:26;99593.22;;;16.38;81.47
71239;BME280;61342;51.442;7.370;2022-10-16T00:55:27;99598.81;;;16.44;81.76
71239;BME280;61342;51.442;7.370;2022-10-16T00:56:31;99599.78;;;16.46;81.16
71239;BME280;61342;51.442;7.370;2022-10-16T00:57:32;99598.41;;;16.47;81.08
71239;BME280;61342;51.442;7.370;2022-10-16T00:58:32;99595.31;;;16.45;81.09
71239;BME280;61342;51.442;7.370;2022-10-16T00:59:36;99603.44;;;16.47;81.11
71239;BME280;61342;51.442;7.370;2022-10-16T01:00:36;99596.69;;;16.44;81.12
71239;BME280;61342;51.442;7.370;2022-10-16T01:01:37;99597.25;;;16.43;80.50
71239;BME280;61342;51.442;7.370;2022-10-16T01:02:38;99599.97;;;16.41;80.82
71239;BME280;61342;51.442;7.370;2022-10-16T01:03:38;99597.50;;;16.37;80.91
71239;BME280;61342;51.442;7.370;2022-10-16T01:04:41;99606.19;;;16.37;81.08
71239;BME280;61342;51.442;7.370;2022-10-16T01:05:51;99600.00;;;16.33;80.83
71239;BME280;61342;51.442;7.370;2022-10-16T01:08:44;99603.50;;;16.24;81.15
71239;BME280;61342;51.442;7.370;2022-10-16T01:10:59;99598.66;;;16.19;81.20
71239;BME280;61342;51.442;7.370;2022-10-16T01:12:08;99598.28;;;16.15;81.51
71239;BME280;61342;51.442;7.370;2022-10-16T01:13:21;99588.63;;;16.13;81.46
71239;BME280;61342;51.442;7.370;2022-10-16T01:15:56;99594.47;;;16.06;81.47
71239;BME280;61342;51.442;7.370;2022-10-16T01:17:12;99592.13;;;16.04;81.94
71239;BME280;61342;51.442;7.370;2022-10-16T01:18:33;99587.91;;;15.98;81.37
71239;BME280;61342;51.442;7.370;2022-10-16T01:20:16;99599.91;;;15.94;81.67
71239;BME280;61342;51.442;7.370;2022-10-16T01:21:32;99591.78;;;15.93;81.64
71239;BME280;61342;51.442;7.370;2022-10-16T01:24:09;99600.88;;;15.89;82.33
71239;BME280;61342;51.442;7.370;2022-10-16T01:25:19;99613.81;;;15.88;82.37
71239;BME280;61342;51.442;7.370;2022-10-16T01:27:03;99608.00;;;15.88;82.50
71239;BME280;61342;51.442;7.370;2022-10-16T01:28:06;99609.19;;;15.93;82.41
71239;BME280;61342;51.442;7.370;2022-10-16T01:29:25;99610.53;;;15.99;82.34
71239;BME280;61342;51.442;7.370;2022-10-16T01:30:30;99604.13;;;16.08;82.38
71239;BME280;61342;51.442;7.370;2022-10-16T01:31:33;99611.81;;;16.13;82.56
71239;BME280;61342;51.442;7.370;2022-10-16T01:33:01;99610.09;;;16.17;81.89
71239;BME280;61342;51.442;7.370;2022-10-16T01:34:08;99604.47;;;16.19;81.94
71239;BME280;61342;51.442;7.370;2022-10-16T01:35:22;99607.56;;;16.21;81.75
71239;BME280;61342;51.442;7.370;2022-10-16T01:36:29;99612.97;;;16.25;81.66
71239;BME280;61342;51.442;7.370;2022-10-16T01:37:45;99611.03;;;16.27;81.28
71239;BME280;61342;51.442;7.370;2022-10-16T01:38:49;99609.28;;;16.24;81.68
71239;BME280;61342;51.442;7.370;2022-10-16T01:39:54;99606.59;;;16.26;81.46
71239;BME280;61342;51.442;7.370;2022-10-16T01:41:01;99600.59;;;16.24;81.46
71239;BME280;61342;51.442;7.370;2022-10-16T01:43:24;99599.47;;;16.20;81.55
71239;BME280;61342;51.442;7.370;2022-10-16T01:44:29;99595.00;;;16.19;81.43
71239;BME280;61342;51.442;7.370;2022-10-16T01:45:32;99597.69;;;16.17;81.24
71239;BME280;61342;51.442;7.370;2022-10-16T01:46:34;99599.63;;;16.14;81.47
71239;BME280;61342;51.442;7.370;2022-10-16T01:47:36;99600.81;;;16.12;81.54
71239;BME280;61342;51.442;7.370;2022-10-16T01:48:38;99599.69;;;16.07;81.71
71239;BME280;61342;51.442;7.370;2022-10-16T01:49:40;99607.59;;;16.07;81.52
71239;BME280;61342;51.442;7.370;2022-10-16T01:50:43;99597.16;;;16.04;81.91
71239;BME280;61342;51.442;7.370;2022-10-16T01:51:46;99604.91;;;16.01;81.92
71239;BME280;61342;51.442;7.370;2022-10-16T01:52:50;99603.19;;;15.98;82.16
71239;BME280;61342;51.442;7.370;2022-10-16T01:53:54;99606.66;;;15.97;81.83
71239;BME280;61342;51.442;7.370;2022-10-16T01:54:56;99603.56;;;15.95;81.79
71239;BME280;61342;51.442;7.370;2022-10-16T01:55:58;99611.50;;;15.94;81.94
71239;BME280;61342;51.442;7.370;2022-10-16T01:57:01;99604.56;;;15.90;82.46
71239;BME280;61342;51.442;7.370;2022-10-16T01:58:05;99605.91;;;15.89;82.30
71239;BME280;61342;51.442;7.370;2022-10-16T01:59:14;99607.84;;;15.86;81.97
71239;BME280;61342;51.442;7.370;2022-10-16T02:00:17;99602.63;;;15.85;82.53
71239;BME280;61342;51.442;7.370;2022-10-16T02:01:21;99596.44;;;15.81;82.48
71239;BME280;61342;51.442;7.370;2022-10-16T02:02:26;99604.34;;;15.80;82.43
71239;BME280;61342;51.442;7.370;2022-10-16T02:03:28;99609.41;;;15.80;82.39
71239;BME280;61342;51.442;7.370;2022-10-16T02:04:36;99604.78;;;15.77;82.48
71239;BME280;61342;51.442;7.370;2022-10-16T02:05:50;99598.59;;;15.73;82.23
71239;BME280;61342;51.442;7.370;2022-10-16T02:06:52;99595.50;;;15.71;82.36
71239;BME280;61342;51.442;7.370;2022-10-16T02:07:53;99600.13;;;15.74;82.53
71239;BME280;61342;51.442;7.370;2022-10-16T02:08:53;99595.31;;;15.69;82.88
71239;BME280;61342;51.442;7.370;2022-10-16T02:09:54;99603.00;;;15.74;83.18
71239;BME280;61342;51.442;7.370;2022-10-16T02:10:55;99600.31;;;15.76;82.67
71239;BME280;61342;51.442;7.370;2022-10-16T02:11:57;99607.06;;;15.78;83.18
71239;BME280;61342;51.442;7.370;2022-10-16T02:14:23;99614.97;;;15.93;83.29
71239;BME280;61342;51.442;7.370;2022-10-16T02:15:24;99610.69;;;16.01;82.68
71239;BME280;61342;51.442;7.370;2022-10-16T02:16:54;99614.78;;;16.06;82.37
71239;BME280;61342;51.442;7.370;2022-10-16T02:17:54;99605.28;;;16.13;82.03
71239;BME280;61342;51.442;7.370;2022-10-16T02:18:55;99602.38;;;16.13;82.25
71239;BME280;61342;51.442;7.370;2022-10-16T02:19:56;99603.72;;;16.19;82.13
71239;BME280;61342;51.442;7.370;2022-10-16T02:20:59;99607.56;;;16.21;81.75
71239;BME280;61342;51.442;7.370;2022-10-16T02:22:03;99608.72;;;16.18;81.38
71239;BME280;61342;51.442;7.370;2022-10-16T02:23:07;99611.81;;;16.20;81.49
71239;BME280;61342;51.442;7.370;2022-10-16T02:25:22;99616.47;;;16.16;81.39
71239;BME280;61342;51.442;7.370;2022-10-16T02:26:29;99604.69;;;16.14;81.21
71239;BME280;61342;51.442;7.370;2022-10-16T02:28:55;99606.06;;;16.06;80.81
71239;BME280;61342;51.442;7.370;2022-10-16T02:31:42;99605.88;;;15.96;81.42
71239;BME280;61342;51.442;7.370;2022-10-16T02:32:45;99601.44;;;15.95;80.99
71239;BME280;61342;51.442;7.370;2022-10-16T02:33:48;99595.88;;;15.90;81.70
71239;BME280;61342;51.442;7.370;2022-10-16T02:34:50;99607.06;;;15.86;81.67
71239;BME280;61342;51.442;7.370;2022-10-16T02:35:52;99601.84;;;15.84;81.43
71239;BME280;61342;51.442;7.370;2022-10-16T02:36:54;99603.22;;;15.83;81.69
71239;BME280;61342;51.442;7.370;2022-10-16T02:37:55;99600.88;;;15.82;81.53
71239;BME280;61342;51.442;7.370;2022-10-16T02:38:57;99606.28;;;15.78;81.57
71239;BME280;61342;51.442;7.370;2022-10-16T02:39:59;99606.88;;;15.76;81.93
71239;BME280;61342;51.442;7.370;2022-10-16T02:40:59;99611.91;;;15.76;81.97
71239;BME280;61342;51.442;7.370;2022-10-16T02:42:00;99608.63;;;15.72;82.20
71239;BME280;61342;51.442;7.370;2022-10-16T02:43:03;99607.88;;;15.71;82.22
71239;BME280;61342;51.442;7.370;2022-10-16T02:44:03;99611.16;;;15.68;82.00
71239;BME280;61342;51.442;7.370;2022-10-16T02:45:05;99611.72;;;15.66;81.88
71239;BME280;61342;51.442;7.370;2022-10-16T02:46:06;99605.72;;;15.64;82.22
71239;BME280;61342;51.442;7.370;2022-10-16T02:47:06;99611.53;;;15.64;82.40
71239;BME280;61342;51.442;7.370;2022-10-16T02:48:07;99607.06;;;15.63;82.36
71239;BME280;61342;51.442;7.370;2022-10-16T02:49:07;99610.56;;;15.62;82.36
71239;BME280;61342;51.442;7.370;2022-10-16T02:50:08;99609.22;;;15.63;82.50
71239;BME280;61342;51.442;7.370;2022-10-16T02:51:08;99609.78;;;15.61;82.48
71239;BME280;61342;51.442;7.370;2022-10-16T02:52:08;99601.09;;;15.61;82.73
71239;BME280;61342;51.442;7.370;2022-10-16T02:53:08;99608.84;;;15.66;82.74
71239;BME280;61342;51.442;7.370;2022-10-16T02:54:09;99594.13;;;15.72;82.86
71239;BME280;61342;51.442;7.370;2022-10-16T02:55:09;99603.59;;;15.80;83.09
71239;BME280;61342;51.442;7.370;2022-10-16T02:56:09;99599.72;;;15.85;82.96
71239;BME280;61342;51.442;7.370;2022-10-16T02:57:10;99598.19;;;15.91;82.45
71239;BME280;61342;51.442;7.370;2022-10-16T02:58:10;99606.84;;;15.99;82.15
71239;BME280;61342;51.442;7.370;2022-10-16T02:59:11;99610.13;;;16.03;82.31
71239;BME280;61342;51.442;7.370;2022-10-16T03:00:13;99608.75;;;16.04;81.81
71239;BME280;61342;51.442;7.370;2022-10-16T03:01:14;99609.34;;;16.10;81.48
71239;BME280;61342;51.442;7.370;2022-10-16T03:02:16;99611.81;;;16.13;81.42
71239;BME280;61342;51.442;7.370;2022-10-16T03:03:17;99611.81;;;16.13;81.45
71239;BME280;61342;51.442;7.370;2022-10-16T03:04:17;99609.72;;;16.14;81.17
71239;BME280;61342;51.442;7.370;2022-10-16T03:05:17;99606.81;;;16.14;81.24
71239;BME280;61342;51.442;7.370;2022-10-16T03:06:18;99600.81;;;16.12;81.19
71239;BME280;61342;51.442;7.370;2022-10-16T03:07:18;99588.84;;;16.08;81.01
71239;BME280;61342;51.442;7.370;2022-10-16T03:08:19;99589.44;;;16.06;80.78
71239;BME280;61342;51.442;7.370;2022-10-16T03:09:23;99593.88;;;16.07;80.72
71239;BME280;61342;51.442;7.370;2022-10-16T03:10:23;99606.63;;;16.04;80.81
71239;BME280;61342;51.442;7.370;2022-10-16T03:11:24;99599.91;;;16.02;81.24
71239;BME280;61342;51.442;7.370;2022-10-16T03:12:24;99600.28;;;15.98;81.14
71239;BME280;61342;51.442;7.370;2022-10-16T03:13:24;99614.00;;;15.98;81.10
71239;BME280;61342;51.442;7.370;2022-10-16T03:14:25;99614.41;;;15.94;80.99
71239;BME280;61342;51.442;7.370;2022-10-16T03:15:25;99607.63;;;15.92;81.35
71239;BME280;61342;51.442;7.370;2022-10-16T03:16:26;99604.94;;;15.86;80.88
71239;BME280;61342;51.442;7.370;2022-10-16T03:17:26;99611.13;;;15.90;81.10
71239;BME280;61342;51.442;7.370;2022-10-16T03:18:26;99618.09;;;15.87;81.10
71239;BME280;61342;51.442;7.370;2022-10-16T03:19:26;99615.75;;;15.86;81.20
71239;BME280;61342;51.442;7.370;2022-10-16T03:20:27;99615.94;;;15.80;81.22
71239;BME280;61342;51.442;7.370;2022-10-16T03:21:27;99613.84;;;15.81;81.17
71239;BME280;61342;51.442;7.370;2022-10-16T03:22:27;99621.56;;;15.78;81.29
71239;BME280;61342;51.442;7.370;2022-10-16T03:23:28;99614.97;;;15.78;81.51
71239;BME280;61342;51.442;7.370;2022-10-16T03:24:28;99617.72;;;15.76;81.60
71239;BME280;61342;51.442;7.370;2022-10-16T03:25:29;99631.44;;;15.75;81.52
71239;BME280;61342;51.442;7.370;2022-10-16T03:26:29;99621.41;;;15.69;81.59
71239;BME280;61342;51.442;7.370;2022-10-16T03:27:29;99623.13;;;15.72;81.36
71239;BME280;61342;51.442;7.370;2022-10-16T03:28:30;99620.81;;;15.70;81.78
71239;BME280;61342;51.442;7.370;2022-10-16T03:29:30;99631.06;;;15.71;81.55
71239;BME280;61342;51.442;7.370;2022-10-16T03:30:32;99621.19;;;15.67;82.05
71239;BME280;61342;51.442;7.370;2022-10-16T03:31:32;99612.31;;;15.65;81.53
71239;BME280;61342;51.442;7.370;2022-10-16T03:32:33;99605.34;;;15.68;81.75
71239;BME280;61342;51.442;7.370;2022-10-16T03:33:33;99605.53;;;15.70;81.87
71239;BME280;61342;51.442;7.370;2022-10-16T03:34:33;99614.81;;;15.76;81.88
71239;BME280;61342;51.442;7.370;2022-10-16T03:35:34;99602.25;;;15.81;82.03
71239;BME280;61342;51.442;7.370;2022-10-16T03:36:34;99602.81;;;15.87;81.80
71239;BME280;61342;51.442;7.370;2022-10-16T03:37:35;99606.47;;;15.95;81.47
71239;BME280;61342;51.442;7.370;2022-10-16T03:38:35;99604.13;;;16.01;81.40
71239;BME280;61342;51.442;7.370;2022-10-16T03:39:35;99600.66;;;16.02;81.69
71239;BME280;61342;51.442;7.370;2022-10-16T03:40:36;99605.47;;;16.07;81.18
71239;BME280;61342;51.442;7.370;2022-10-16T03:41:36;99596.38;;;16.11;81.06
71239;BME280;61342;51.442;7.370;2022-10-16T03:42:36;99602.16;;;16.11;80.51
71239;BME280;61342;51.442;7.370;2022-10-16T03:43:37;99605.28;;;16.13;80.25
71239;BME280;61342;51.442;7.370;2022-10-16T03:44:38;99601.03;;;16.14;80.15
71239;BME280;61342;51.442;7.370;2022-10-16T03:45:38;99606.03;;;16.13;80.05
71239;BME280;61342;51.442;7.370;2022-10-16T03:46:39;99615.31;;;16.12;80.43
71239;BME280;61342;51.442;7.370;2022-10-16T03:47:39;99614.56;;;16.11;80.14
71239;BME280;61342;51.442;7.370;2022-10-16T03:48:40;99618.03;;;16.10;80.10
71239;BME280;61342;51.442;7.370;2022-10-16T03:49:40;99618.44;;;16.06;80.04
71239;BME280;61342;51.442;7.370;2022-10-16T03:50:41;99611.66;;;16.04;79.87
71239;BME280;61342;51.442;7.370;2022-10-16T03:51:41;99601.06;;;15.91;80.09
71239;BME280;61342;51.442;7.370;2022-10-16T03:52:41;99617.09;;;16.00;80.30
71239;BME280;61342;51.442;7.370;2022-10-16T03:53:41;99610.75;;;15.94;80.33
71239;BME280;61342;51.442;7.370;2022-10-16T03:54:42;99624.44;;;15.93;80.21
71239;BME280;61342;51.442;7.370;2022-10-16T03:55:43;99625.78;;;15.92;80.25
71239;BME280;61342;51.442;7.370;2022-10-16T03:56:43;99624.84;;;15.90;80.28
71239;BME280;61342;51.442;7.370;2022-10-16T03:57:43;99623.09;;;15.87;80.25
71239;BME280;61342;51.442;7.370;2022-10-16T03:58:43;99613.84;;;15.81;80.17
71239;BME280;61342;51.442;7.370;2022-10-16T03:59:44;99618.84;;;15.80;80.53
71239;BME280;61342;51.442;7.370;2022-10-16T04:00:45;99616.53;;;15.79;80.40
71239;BME280;61342;51.442;7.370;2022-10-16T04:01:46;99630.06;;;15.76;80.57
71239;BME280;61342;51.442;7.370;2022-10-16T04:02:46;99626.19;;;15.74;80.81
71239;BME280;61342;51.442;7.370;2022-10-16T04:03:46;99625.06;;;15.69;80.80
71239;BME280;61342;51.442;7.370;2022-10-16T04:04:47;99627.78;;;15.67;80.53
71239;BME280;61342;51.442;7.370;2022-10-16T04:05:47;99623.91;;;15.65;80.73
71239;BME280;61342;51.442;7.370;2022-10-16T04:06:48;99632.78;;;15.67;80.86
71239;BME280;61342;51.442;7.370;2022-10-16T04:07:48;99629.69;;;15.65;80.92
71239;BME280;61342;51.442;7.370;2022-10-16T04:08:48;99625.03;;;15.62;80.70
71239;BME280;61342;51.442;7.370;2022-10-16T04:09:49;99626.41;;;15.61;80.74
71239;BME280;61342;51.442;7.370;2022-10-16T04:10:49;99618.69;;;15.56;80.96
71239;BME280;61342;51.442;7.370;2022-10-16T04:11:49;99620.03;;;15.55;81.13
71239;BME280;61342;51.442;7.370;2022-10-16T04:12:50;99628.53;;;15.53;80.59
71239;BME280;61342;51.442;7.370;2022-10-16T04:13:51;99636.84;;;15.57;80.73
71239;BME280;61342;51.442;7.370;2022-10-16T04:14:51;99637.63;;;15.57;81.20
71239;BME280;61342;51.442;7.370;2022-10-16T04:15:51;99635.13;;;15.61;81.13
71239;BME280;61342;51.442;7.370;2022-10-16T04:16:52;99635.50;;;15.65;80.85
71239;BME280;61342;51.442;7.370;2022-10-16T04:17:52;99632.19;;;15.68;80.80
71239;BME280;61342;51.442;7.370;2022-10-16T04:18:52;99628.53;;;15.75;81.08
71239;BME280;61342;51.442;7.370;2022-10-16T04:19:53;99633.16;;;15.78;80.53
71239;BME280;61342;51.442;7.370;2022-10-16T04:20:53;99626.97;;;15.82;80.51
71239;BME280;61342;51.442;7.370;2022-10-16T04:21:54;99643.59;;;15.89;80.49
71239;BME280;61342;51.442;7.370;2022-10-16T04:22:54;99631.19;;;15.88;80.21
71239;BME280;61342;51.442;7.370;2022-10-16T04:23:54;99633.34;;;15.88;79.87
71239;BME280;61342;51.442;7.370;2022-10-16T04:24:55;99646.66;;;15.91;79.85
71239;BME280;61342;51.442;7.370;2022-10-16T04:25:55;99648.03;;;15.90;79.43
71239;BME280;61342;51.442;7.370;2022-10-16T04:26:55;99645.16;;;15.90;79.58
71239;BME280;61342;51.442;7.370;2022-10-16T04:27:56;99641.06;;;15.85;79.62
71239;BME280;61342;51.442;7.370;2022-10-16T04:28:56;99651.31;;;15.86;79.08
71239;BME280;61342;51.442;7.370;2022-10-16T04:29:57;99654.81;;;15.85;79.38
71239;BME280;61342;51.442;7.370;2022-10-16T04:30:58;99658.66;;;15.80;79.57
71239;BME280;61342;51.442;7.370;2022-10-16T04:31:58;99653.63;;;15.80;79.47
71239;BME280;61342;51.442;7.370;2022-10-16T04:32:59;99656.94;;;15.77;79.65
71239;BME280;61342;51.442;7.370;2022-10-16T04:33:59;99654.63;;;15.75;79.54
71239;BME280;61342;51.442;7.370;2022-10-16T04:34:59;99648.63;;;15.73;79.50
71239;BME280;61342;51.442;7.370;2022-10-16T04:36:01;99654.78;;;15.70;79.71
71239;BME280;61342;51.442;7.370;2022-10-16T04:37:02;99654.41;;;15.66;79.81
71239;BME280;61342;51.442;7.370;2022-10-16T04:38:02;99657.13;;;15.64;79.88
71239;BME280;61342;51.442;7.370;2022-10-16T04:39:03;99653.84;;;15.60;79.53
71239;BME280;61342;51.442;7.370;2022-10-16T04:40:04;99662.31;;;15.58;79.88
71239;BME280;61342;51.442;7.370;2022-10-16T04:41:05;99662.31;;;15.58;79.67
71239;BME280;61342;51.442;7.370;2022-10-16T04:42:06;99665.03;;;15.56;79.87
71239;BME280;61342;51.442;7.370;2022-10-16T04:43:06;99663.31;;;15.53;79.97
71239;BME280;61342;51.442;7.370;2022-10-16T04:44:07;99671.78;;;15.51;79.88
71239;BME280;61342;51.442;7.370;2022-10-16T04:45:08;99669.47;;;15.50;80.15
71239;BME280;61342;51.442;7.370;2022-10-16T04:46:09;99671.22;;;15.45;80.13
71239;BME280;61342;51.442;7.370;2022-10-16T04:47:10;99678.53;;;15.46;80.03
71239;BME280;61342;51.442;7.370;2022-10-16T04:48:10;99676.06;;;15.43;79.93
71239;BME280;61342;51.442;7.370;2022-10-16T04:49:11;99667.91;;;15.41;79.97
71239;BME280;61342;51.442;7.370;2022-10-16T04:50:11;99663.88;;;15.37;80.52
71239;BME280;61342;51.442;7.370;2022-10-16T04:51:11;99665.78;;;15.34;80.59
71239;BME280;61342;51.442;7.370;2022-10-16T04:52:12;99680.47;;;15.36;80.29
71239;BME280;61342;51.442;7.370;2022-10-16T04:53:12;99659.03;;;15.32;80.63
71239;BME280;61342;51.442;7.370;2022-10-16T04:54:13;99667.13;;;15.33;80.53
71239;BME280;61342;51.442;7.370;2022-10-16T04:55:13;99678.94;;;15.35;80.29
71239;BME280;61342;51.442;7.370;2022-10-16T04:56:13;99678.16;;;15.35;80.22
71239;BME280;61342;51.442;7.370;2022-10-16T04:57:15;99663.28;;;15.31;80.57
71239;BME280;61342;51.442;7.370;2022-10-16T04:58:15;99665.59;;;15.32;80.87
71239;BME280;61342;51.442;7.370;2022-10-16T04:59:17;99671.38;;;15.40;80.84
71239;BME280;61342;51.442;7.370;2022-10-16T05:00:18;99662.31;;;15.43;81.13
71239;BME280;61342;51.442;7.370;2022-10-16T05:01:18;99665.25;;;15.51;81.07
71239;BME280;61342;51.442;7.370;2022-10-16T05:02:19;99673.16;;;15.57;80.69
71239;BME280;61342;51.442;7.370;2022-10-16T05:03:19;99666.59;;;15.57;80.36
71239;BME280;61342;51.442;7.370;2022-10-16T05:04:19;99664.09;;;15.61;80.35
71239;BME280;61342;51.442;7.370;2022-10-16T05:05:20;99670.66;;;15.69;80.42
71239;BME280;61342;51.442;7.370;2022-10-16T05:06:20;99679.53;;;15.71;80.32
71239;BME280;61342;51.442;7.370;2022-10-16T05:07:21;99678.38;;;15.74;80.16
71239;BME280;61342;51.442;7.370;2022-10-16T05:08:21;99686.50;;;15.75;79.82
71239;BME280;61342;51.442;7.370;2022-10-16T05:09:21;99680.50;;;15.73;79.80
71239;BME280;61342;51.442;7.370;2022-10-16T05:10:22;99689.78;;;15.72;79.68
71239;BME280;61342;51.442;7.370;2022-10-16T05:11:22;99689.00;;;15.71;79.57
71239;BME280;61342;51.442;7.370;2022-10-16T05:12:23;99696.91;;;15.71;79.40
71239;BME280;61342;51.442;7.370;2022-10-16T05:13:23;99695.38;;;15.70;79.21
71239;BME280;61342;51.442;7.370;2022-10-16T05:14:23;99696.34;;;15.65;79.37
71239;BME280;61342;51.442;7.370;2022-10-16T05:15:24;99694.41;;;15.60;79.66
71239;BME280;61342;51.442;7.370;2022-10-16T05:16:25;99703.50;;;15.64;79.69
71239;BME280;61342;51.442;7.370;2022-10-16T05:17:26;99699.63;;;15.61;79.76
71239;BME280;61342;51.442;7.370;2022-10-16T05:18:26;99699.03;;;15.56;79.63
71239;BME280;61342;51.442;7.370;2022-10-16T05:19:26;99704.25;;;15.57;79.57
71239;BME280;61342;51.442;7.370;2022-10-16T05:20:27;99697.28;;;15.53;79.85
71239;BME280;61342;51.442;7.370;2022-10-16T05:21:27;99715.47;;;15.53;79.96
71239;BME280;61342;51.442;7.370;2022-10-16T05:22:28;99705.81;;;15.51;79.87
71239;BME280;61342;51.442;7.370;2022-10-16T05:23:28;99712.19;;;15.49;79.91
71239;BME280;61342;51.442;7.370;2022-10-16T05:24:28;99707.72;;;15.48;80.24
71239;BME280;61342;51.442;7.370;2022-10-16T05:25:29;99712.53;;;15.46;80.53
71239;BME280;61342;51.442;7.370;2022-10-16T05:26:29;99713.13;;;15.44;80.57
71239;BME280;61342;51.442;7.370;2022-10-16T05:27:29;99718.13;;;15.44;80.43
71239;BME280;61342;51.442;7.370;2022-10-16T05:28:31;99713.72;;;15.43;80.68
71239;BME280;61342;51.442;7.370;2022-10-16T05:29:32;99716.22;;;15.39;80.91
71239;BME280;61342;51.442;7.370;2022-10-16T05:30:32;99718.91;;;15.37;80.87
71239;BME280;61342;51.442;7.370;2022-10-16T05:31:32;99712.91;;;15.35;80.74
71239;BME280;61342;51.442;7.370;2022-10-16T05:32:33;99718.91;;;15.37;81.10
71239;BME280;61342;51.442;7.370;2022-10-16T05:33:33;99723.94;;;15.36;80.74
71239;BME280;61342;51.442;7.370;2022-10-16T05:34:34;99722.38;;;15.35;80.69
71239;BME280;61342;51.442;7.370;2022-10-16T05:35:34;99726.44;;;15.32;80.93
71239;BME280;61342;51.442;7.370;2022-10-16T05:36:34;99723.53;;;15.32;80.85
71239;BME280;61342;51.442;7.370;2022-10-16T05:37:35;99731.25;;;15.30;81.39
71239;BME280;61342;51.442;7.370;2022-10-16T05:38:36;99727.78;;;15.31;81.40
71239;BME280;61342;51.442;7.370;2022-10-16T05:39:37;99717.53;;;15.30;80.96
71239;BME280;61342;51.442;7.370;2022-10-16T05:40:38;99720.25;;;15.28;81.44
71239;BME280;61342;51.442;7.370;2022-10-16T05:41:38;99720.41;;;15.30;81.17
71239;BME280;61342;51.442;7.370;2022-10-16T05:42:39;99727.56;;;15.29;81.35
71239;BME280;61342;51.442;7.370;2022-10-16T05:43:39;99736.25;;;15.29;81.34